Time;durP1;ratioP1;P1;durP2;ratioP2;P2;SDS_P1;SDS_P2;PMS_P1;PMS_P2;Temp;Humidity;BMP_temperature;BMP_pressure;BME280_temperature;BME280_humidity;BME280_pressure;Samples;Min_cycle;Max_cycle;Signal;HPM_P1;HPM_P2
2021/10/21 00:01:04;;;;;;;;;0.75;0.75;;;;;17.17;57.29;99602.66;4982218;28;45200;-79
2021/10/21 00:03:29;;;;;;;;;2.50;0.25;;;;;17.18;56.82;99593.72;4982548;28;45222;-79
2021/10/21 00:05:54;;;;;;;;;2.00;0.50;;;;;17.16;55.08;99600.94;4986656;28;45620;-80
2021/10/21 00:08:20;;;;;;;;;1.75;1.00;;;;;17.10;57.22;99578.38;4999633;28;46408;-76
2021/10/21 00:10:46;;;;;;;;;1.75;1.00;;;;;17.10;56.68;99586.34;4985331;28;45272;-74
2021/10/21 00:13:12;;;;;;;;;2.00;1.00;;;;;17.15;57.15;99590.44;4982338;28;45323;-75
2021/10/21 00:15:38;;;;;;;;;2.00;2.00;;;;;17.11;57.69;99568.59;4984736;28;45564;-78
2021/10/21 00:18:03;;;;;;;;;1.00;0.00;;;;;17.11;55.11;99603.13;4990722;28;45424;-80
2021/10/21 00:20:29;;;;;;;;;2.50;2.00;;;;;17.08;55.64;99580.31;4982501;28;45436;-81
2021/10/21 00:22:54;;;;;;;;;2.50;0.00;;;;;17.07;56.38;99581.25;5001172;28;45377;-80
2021/10/21 00:25:20;;;;;;;;;2.00;0.75;;;;;17.07;54.65;99589.22;4986830;28;45567;-80
2021/10/21 00:27:45;;;;;;;;;1.75;1.50;;;;;17.04;56.33;99591.28;5001695;28;45321;-79
2021/10/21 00:30:11;;;;;;;;;5.25;1.50;;;;;17.07;56.08;99612.25;4989899;28;45164;-82
2021/10/21 00:32:36;;;;;;;;;0.25;0.25;;;;;17.03;56.71;99578.97;4983610;28;46101;-79
2021/10/21 00:35:02;;;;;;;;;2.25;2.00;;;;;17.07;56.42;99602.50;5001200;28;45287;-79
2021/10/21 00:37:27;;;;;;;;;1.50;1.00;;;;;17.07;55.12;99591.03;4981935;28;45345;-79
2021/10/21 00:39:52;;;;;;;;;0.50;0.50;;;;;17.08;56.50;99593.59;4981717;28;45234;-79
2021/10/21 00:42:18;;;;;;;;;4.50;1.00;;;;;17.09;56.23;99612.97;4996859;28;45205;-77
2021/10/21 00:44:44;;;;;;;;;2.75;1.00;;;;;17.09;56.36;99594.41;4999794;28;47092;-79
2021/10/21 00:47:10;;;;;;;;;1.00;0.75;;;;;17.11;54.31;99611.06;4984064;28;45312;-80
2021/10/21 00:49:35;;;;;;;;;0.00;0.00;;;;;17.13;55.88;99584.41;4982027;28;45549;-81
2021/10/21 00:52:01;;;;;;;;;1.75;1.00;;;;;17.09;53.75;99607.69;4981755;28;45603;-82
2021/10/21 00:54:27;;;;;;;;;4.00;0.00;;;;;17.01;55.78;99618.06;4996392;28;45849;-82
2021/10/21 00:56:54;;;;;;;;;3.50;0.25;;;;;16.96;55.78;99619.25;4986369;28;45438;-82
2021/10/21 00:59:20;;;;;;;;;2.00;0.00;;;;;16.95;56.03;99633.50;4981551;28;45651;-82
2021/10/21 01:01:45;;;;;;;;;4.00;1.00;;;;;16.94;53.31;99645.06;4980867;28;45326;-79
2021/10/21 01:04:11;;;;;;;;;2.75;1.00;;;;;16.93;55.92;99632.78;4990707;28;45391;-79
2021/10/21 01:06:39;;;;;;;;;2.75;1.00;;;;;16.97;53.88;99644.00;4981784;28;46356;-80
2021/10/21 01:09:05;;;;;;;;;1.50;0.25;;;;;16.99;54.78;99660.63;4981567;28;45637;-79
2021/10/21 01:11:30;;;;;;;;;0.00;0.00;;;;;16.83;52.88;99667.16;4981674;28;45273;-78
2021/10/21 01:13:56;;;;;;;;;1.50;0.50;;;;;16.81;54.22;99649.66;4991456;28;45462;-79
2021/10/21 01:16:21;;;;;;;;;3.00;0.00;;;;;16.85;54.45;99664.38;4998770;28;46452;-78
2021/10/21 01:18:47;;;;;;;;;0.00;0.00;;;;;16.83;52.42;99674.25;4996046;28;45547;-79
2021/10/21 01:21:13;;;;;;;;;3.25;0.25;;;;;16.72;54.58;99689.19;4982380;28;45253;-77
2021/10/21 01:23:40;;;;;;;;;0.00;0.00;;;;;16.62;53.64;99666.97;4987479;28;45249;-75
2021/10/21 01:26:11;;;;;;;;;1.50;0.75;;;;;16.65;55.54;99694.13;4984305;28;45238;-75
2021/10/21 01:28:37;;;;;;;;;2.00;0.00;;;;;16.66;54.29;99718.84;4980855;28;45550;-79
2021/10/21 01:31:03;;;;;;;;;0.50;0.50;;;;;16.59;51.43;99734.38;4993012;28;45423;-81
2021/10/21 01:33:29;;;;;;;;;0.00;0.00;;;;;16.60;53.97;99714.00;4981071;28;45336;-75
2021/10/21 01:35:54;;;;;;;;;0.00;0.00;;;;;16.61;53.79;99750.19;4985148;28;46918;-76
2021/10/21 01:38:20;;;;;;;;;0.00;0.00;;;;;16.58;51.82;99751.25;4988571;28;45352;-76
2021/10/21 01:40:46;;;;;;;;;0.00;0.00;;;;;16.47;54.73;99744.06;4979604;28;45540;-79
2021/10/21 01:43:13;;;;;;;;;0.00;0.00;;;;;16.47;54.05;99743.25;4979553;28;47306;-79
2021/10/21 01:45:39;;;;;;;;;0.00;0.00;;;;;16.52;53.44;99764.94;4980782;28;45494;-78
2021/10/21 01:48:05;;;;;;;;;1.00;0.00;;;;;16.50;53.79;99765.06;4989582;28;45202;-79
2021/10/21 01:50:32;;;;;;;;;0.00;0.00;;;;;16.47;54.84;99759.16;5000481;28;45463;-79
2021/10/21 01:52:58;;;;;;;;;2.00;0.00;;;;;16.49;54.09;99775.81;5000497;28;45429;-80
2021/10/21 01:55:24;;;;;;;;;0.00;0.00;;;;;16.47;51.98;99804.25;4997875;28;46415;-78
2021/10/21 01:57:51;;;;;;;;;0.00;0.00;;;;;16.49;53.10;99821.75;4980850;28;45399;-78
2021/10/21 02:00:19;;;;;;;;;1.00;0.00;;;;;16.51;54.36;99813.66;4980533;28;45412;-77
2021/10/21 02:02:45;;;;;;;;;0.00;0.00;;;;;16.49;53.79;99831.50;4982305;28;45201;-76
2021/10/21 02:05:12;;;;;;;;;0.00;0.00;;;;;16.44;53.88;99839.81;4998278;28;46321;-77
2021/10/21 02:07:38;;;;;;;;;0.00;0.00;;;;;16.46;54.81;99853.78;4980698;28;45424;-76
2021/10/21 02:10:12;;;;;;;;;0.00;0.00;;;;;16.42;53.08;99852.34;4980561;28;45333;-76
2021/10/21 02:12:38;;;;;;;;;0.00;0.00;;;;;16.44;53.92;99870.78;4980582;28;45533;-78
2021/10/21 02:15:04;;;;;;;;;1.00;0.00;;;;;16.43;54.66;99883.19;4988520;28;45498;-79
2021/10/21 02:17:30;;;;;;;;;0.00;0.00;;;;;16.49;52.68;99876.59;4986106;28;45407;-79
2021/10/21 02:19:55;;;;;;;;;0.00;0.00;;;;;16.47;53.20;99905.84;4980670;28;45430;-78
2021/10/21 02:22:20;;;;;;;;;2.00;0.00;;;;;16.48;52.89;99896.09;4980282;28;45427;-79
2021/10/21 02:24:46;;;;;;;;;0.00;0.00;;;;;16.42;53.88;99915.97;4994126;28;45556;-77
2021/10/21 02:27:12;;;;;;;;;0.00;0.00;;;;;16.36;53.38;99909.28;4992334;28;45232;-78
2021/10/21 02:29:37;;;;;;;;;0.00;0.00;;;;;16.34;53.34;99911.22;4980190;28;45272;-77
2021/10/21 02:32:03;;;;;;;;;1.00;0.00;;;;;16.34;52.57;99913.88;4980474;28;45438;-77
2021/10/21 02:34:28;;;;;;;;;0.00;0.00;;;;;16.38;54.06;99994.88;4984488;28;48273;-79
2021/10/21 02:36:54;;;;;;;;;0.50;0.50;;;;;16.38;53.36;99946.31;4994173;28;45264;-78
2021/10/21 02:39:19;;;;;;;;;0.00;0.00;;;;;16.38;51.09;99925.94;4998947;28;45239;-79
2021/10/21 02:41:45;;;;;;;;;0.00;0.00;;;;;16.34;53.74;99966.91;4999559;28;45343;-78
2021/10/21 02:44:10;;;;;;;;;0.75;0.75;;;;;16.37;53.31;99989.69;4995279;28;45257;-78
2021/10/21 02:46:36;;;;;;;;;0.00;0.00;;;;;16.38;53.68;100007.28;4980210;28;45492;-78
2021/10/21 02:49:02;;;;;;;;;1.50;0.00;;;;;16.39;52.56;100011.66;4996664;28;45308;-75
2021/10/21 02:51:28;;;;;;;;;0.00;0.00;;;;;16.40;52.42;100013.34;4999760;28;45398;-75
2021/10/21 02:53:53;;;;;;;;;0.00;0.00;;;;;16.42;53.50;100051.22;4997920;28;46413;-82
2021/10/21 02:56:18;;;;;;;;;0.00;0.00;;;;;16.37;52.36;100042.75;4980025;28;45449;-83
2021/10/21 02:58:44;;;;;;;;;0.00;0.00;;;;;16.36;53.15;100063.09;4996292;28;45420;-80
2021/10/21 03:01:09;;;;;;;;;0.00;0.00;;;;;16.30;53.25;100061.72;4999159;28;45372;-80
2021/10/21 03:03:35;;;;;;;;;0.00;0.00;;;;;16.32;53.06;100098.75;4999338;28;45319;-79
2021/10/21 03:06:00;;;;;;;;;0.00;0.00;;;;;16.35;51.74;100122.38;4980629;28;45343;-79
2021/10/21 03:08:25;;;;;;;;;0.75;0.00;;;;;16.33;51.77;100113.69;4992043;28;45260;-80
2021/10/21 03:10:51;;;;;;;;;0.00;0.00;;;;;16.28;52.05;100144.97;4996465;28;45521;-79
2021/10/21 03:13:17;;;;;;;;;0.50;0.00;;;;;16.17;52.56;100151.00;4979726;28;45347;-80
2021/10/21 03:15:42;;;;;;;;;0.00;0.00;;;;;16.14;52.02;100161.78;4979183;28;45312;-81
2021/10/21 03:18:07;;;;;;;;;0.00;0.00;;;;;16.11;52.33;100197.31;4991345;28;45411;-78
2021/10/21 03:20:34;;;;;;;;;0.00;0.00;;;;;16.16;52.90;100192.56;4999055;28;45166;-78
2021/10/21 03:23:01;;;;;;;;;0.00;0.00;;;;;16.12;51.08;100249.38;4980464;28;46159;-76
2021/10/21 03:25:27;;;;;;;;;0.00;0.00;;;;;16.04;52.41;100257.81;4990313;28;45572;-75
2021/10/21 03:27:52;;;;;;;;;0.00;0.00;;;;;15.90;51.54;100311.66;4990395;28;45289;-78
2021/10/21 03:30:18;;;;;;;;;1.75;0.00;;;;;15.83;50.57;100278.53;5001508;28;45452;-75
2021/10/21 03:32:44;;;;;;;;;0.50;0.00;;;;;15.75;51.76;100287.81;4985110;28;45527;-77
2021/10/21 03:35:10;;;;;;;;;0.00;0.00;;;;;15.72;50.25;100341.03;4982884;28;45362;-79
2021/10/21 03:37:36;;;;;;;;;0.00;0.00;;;;;15.64;52.34;100340.63;4987121;28;46188;-79
2021/10/21 03:40:03;;;;;;;;;0.00;0.00;;;;;15.63;50.87;100355.66;4983472;28;47462;-75
2021/10/21 03:42:28;;;;;;;;;1.25;0.00;;;;;15.46;49.37;100369.09;5000796;28;46737;-73
2021/10/21 03:44:56;;;;;;;;;2.00;0.50;;;;;15.28;51.07;100374.53;5000428;28;45399;-77
2021/10/21 03:47:22;;;;;;;;;0.00;0.00;;;;;15.10;52.59;100402.91;4991609;28;45387;-76
2021/10/21 03:49:50;;;;;;;;;0.25;0.00;;;;;15.11;51.65;100436.41;4982409;28;45411;-74
2021/10/21 03:52:16;;;;;;;;;0.00;0.00;;;;;15.09;51.51;100462.94;4982754;28;46630;-73
2021/10/21 03:54:41;;;;;;;;;0.00;0.00;;;;;14.91;50.83;100459.56;4982447;28;45188;-75
2021/10/21 03:57:07;;;;;;;;;0.00;0.00;;;;;14.93;51.98;100482.34;4985495;28;45386;-74
2021/10/21 03:59:32;;;;;;;;;1.75;0.25;;;;;14.94;53.43;100467.28;4982241;28;45407;-76
2021/10/21 04:01:58;;;;;;;;;1.00;0.00;;;;;14.95;52.19;100492.84;4982073;28;45511;-76
2021/10/21 04:04:23;;;;;;;;;0.50;0.00;;;;;14.88;51.23;100510.00;4993578;28;45229;-77
2021/10/21 04:06:49;;;;;;;;;0.00;0.00;;;;;14.72;51.81;100532.81;4984628;28;45329;-76
2021/10/21 04:09:15;;;;;;;;;0.25;0.25;;;;;14.58;52.01;100553.84;4982369;28;45548;-80
2021/10/21 04:11:40;;;;;;;;;0.00;0.00;;;;;14.52;53.89;100549.75;4982272;28;45269;-76
2021/10/21 04:14:05;;;;;;;;;0.00;0.00;;;;;14.56;54.50;100561.88;4989860;28;45315;-76
2021/10/21 04:16:31;;;;;;;;;0.00;0.00;;;;;14.69;54.58;100572.66;4987167;28;45517;-75
2021/10/21 04:18:56;;;;;;;;;0.00;0.00;;;;;14.80;53.26;100569.44;4982222;28;45351;-76
2021/10/21 04:21:22;;;;;;;;;0.00;0.00;;;;;14.78;53.20;100571.31;4981977;28;46272;-75
2021/10/21 04:23:48;;;;;;;;;0.75;0.00;;;;;14.79;52.26;100577.47;4982937;28;45501;-75
2021/10/21 04:26:13;;;;;;;;;0.75;0.75;;;;;14.77;52.89;100574.03;4988164;28;45410;-76
2021/10/21 04:28:39;;;;;;;;;1.00;0.00;;;;;14.78;53.36;100571.31;4981767;28;45502;-76
2021/10/21 04:31:05;;;;;;;;;0.00;0.00;;;;;14.82;55.13;100566.69;4981731;28;45555;-78
2021/10/21 04:33:30;;;;;;;;;0.25;0.00;;;;;14.96;53.24;100595.13;4990402;28;45796;-77
2021/10/21 04:35:56;;;;;;;;;0.00;0.00;;;;;15.06;54.37;100580.41;4981595;28;45284;-77
2021/10/21 04:38:21;;;;;;;;;0.75;0.00;;;;;15.14;53.55;100603.84;5001557;28;45433;-80
2021/10/21 04:40:47;;;;;;;;;0.00;0.00;;;;;15.22;53.98;100616.66;5000450;28;45438;-82
2021/10/21 04:43:12;;;;;;;;;0.75;0.00;;;;;15.28;54.61;100611.00;5001185;28;45204;-82
2021/10/21 04:45:37;;;;;;;;;0.75;0.00;;;;;15.29;52.82;100620.66;4981822;28;45467;-73
2021/10/21 04:48:03;;;;;;;;;1.00;0.50;;;;;15.34;53.81;100620.41;4981992;28;45300;-74
2021/10/21 04:50:28;;;;;;;;;0.75;0.00;;;;;15.46;52.42;100632.13;4983963;28;46544;-75
2021/10/21 04:52:54;;;;;;;;;0.00;0.00;;;;;15.44;52.64;100644.59;4981517;28;45290;-75
2021/10/21 04:55:23;;;;;;;;;0.25;0.00;;;;;15.48;54.01;100656.72;4981692;28;45265;-75
2021/10/21 04:57:50;;;;;;;;;1.50;0.75;;;;;15.51;54.05;100653.06;4981570;28;45415;-75
2021/10/21 05:00:17;;;;;;;;;0.00;0.00;;;;;15.51;54.40;100661.00;4986964;28;45395;-75
2021/10/21 05:02:43;;;;;;;;;0.00;0.00;;;;;15.57;54.39;100679.22;4987437;28;45571;-76
2021/10/21 05:05:09;;;;;;;;;0.50;0.00;;;;;15.58;54.27;100691.50;4981753;28;45386;-75
2021/10/21 05:07:34;;;;;;;;;1.00;0.00;;;;;15.58;53.93;100685.38;4981352;28;45416;-75
2021/10/21 05:09:59;;;;;;;;;0.25;0.00;;;;;15.52;53.47;100705.97;4994467;28;45319;-75
2021/10/21 05:12:25;;;;;;;;;0.00;0.00;;;;;15.50;54.11;100704.34;4993344;28;46453;-75
2021/10/21 05:14:52;;;;;;;;;1.00;0.00;;;;;15.46;52.95;100718.69;4987544;28;45238;-77
2021/10/21 05:17:18;;;;;;;;;0.75;0.75;;;;;15.39;51.99;100723.44;4979689;28;47309;-78
2021/10/21 05:19:43;;;;;;;;;1.00;0.50;;;;;15.22;53.86;100725.19;4981075;28;45356;-78
2021/10/21 05:22:09;;;;;;;;;0.00;0.00;;;;;15.15;52.57;100737.06;4989209;28;45317;-77
2021/10/21 05:24:34;;;;;;;;;1.25;1.00;;;;;15.09;54.23;100737.38;4992583;28;45331;-77
2021/10/21 05:26:59;;;;;;;;;0.00;0.00;;;;;15.07;54.99;100740.09;4997520;28;45623;-77
2021/10/21 05:29:26;;;;;;;;;1.00;0.00;;;;;15.13;54.09;100755.69;4996484;28;46078;-78
2021/10/21 05:31:52;;;;;;;;;2.00;0.75;;;;;15.14;54.77;100740.63;4997931;28;45664;-77
2021/10/21 05:34:17;;;;;;;;;1.00;0.25;;;;;15.12;53.79;100747.78;5008424;28;45388;-78
2021/10/21 05:36:43;;;;;;;;;1.25;0.00;;;;;15.13;52.33;100760.09;4991997;28;45467;-73
2021/10/21 05:39:08;;;;;;;;;1.00;1.00;;;;;15.04;53.77;100767.56;4995610;28;45193;-73
2021/10/21 05:41:34;;;;;;;;;1.00;0.00;;;;;15.03;54.59;100759.72;4995248;28;45224;-76
2021/10/21 05:43:59;;;;;;;;;0.75;0.00;;;;;15.07;55.36;100763.91;4989556;28;45487;-79
2021/10/21 05:46:25;;;;;;;;;1.00;1.00;;;;;15.18;53.98;100766.03;4988386;28;45234;-74
2021/10/21 05:48:50;;;;;;;;;0.00;0.00;;;;;15.26;55.27;100766.47;4990252;28;45214;-73
2021/10/21 05:51:16;;;;;;;;;0.75;0.75;;;;;15.34;53.87;100774.00;4985422;28;45262;-73
2021/10/21 05:53:41;;;;;;;;;1.00;1.00;;;;;15.40;55.11;100779.00;4995245;28;45549;-73
2021/10/21 05:56:06;;;;;;;;;0.00;0.00;;;;;15.50;55.08;100771.41;4981035;28;45266;-73
2021/10/21 05:58:32;;;;;;;;;1.50;1.00;;;;;15.61;54.14;100777.91;4981260;28;46986;-76
2021/10/21 06:00:57;;;;;;;;;2.50;1.50;;;;;15.66;53.55;100783.81;4983578;28;45328;-76
2021/10/21 06:03:25;;;;;;;;;2.00;1.50;;;;;15.59;53.57;100787.72;4989242;28;45304;-76
2021/10/21 06:05:51;;;;;;;;;2.50;1.00;;;;;15.58;54.31;100791.34;4980545;28;45399;-76
2021/10/21 06:08:16;;;;;;;;;0.25;0.00;;;;;15.57;54.20;100787.81;4982401;28;46553;-76
2021/10/21 06:10:42;;;;;;;;;1.00;0.00;;;;;15.49;54.15;100793.53;4997764;28;45168;-76
2021/10/21 06:13:07;;;;;;;;;0.00;0.00;;;;;15.40;55.05;100805.47;5000464;28;45206;-77
2021/10/21 06:15:32;;;;;;;;;1.00;1.00;;;;;15.36;55.19;100813.66;4996075;28;45458;-77
2021/10/21 06:18:01;;;;;;;;;3.25;2.00;;;;;15.32;55.10;100812.94;4981592;28;45447;-77
2021/10/21 06:20:27;;;;;;;;;1.25;1.25;;;;;15.30;55.13;100821.00;4980170;28;45498;-77
2021/10/21 06:22:52;;;;;;;;;2.25;1.00;;;;;15.32;55.76;100822.69;4999789;28;45372;-77
2021/10/21 06:25:18;;;;;;;;;1.25;1.25;;;;;15.28;55.53;100825.47;4981846;28;45273;-77
2021/10/21 06:27:43;;;;;;;;;2.00;2.00;;;;;15.25;55.93;100835.38;4983989;28;46308;-77
2021/10/21 06:30:09;;;;;;;;;2.00;0.50;;;;;15.19;56.35;100831.25;4999683;28;45331;-77
2021/10/21 06:32:37;;;;;;;;;2.00;2.00;;;;;15.19;56.10;100837.41;4992608;28;45427;-77
2021/10/21 06:35:03;;;;;;;;;1.75;1.00;;;;;15.07;56.62;100838.03;4999320;28;45208;-77
2021/10/21 06:37:30;;;;;;;;;4.00;1.00;;;;;15.09;56.85;100840.63;4992655;28;45452;-77
2021/10/21 06:39:55;;;;;;;;;3.00;1.75;;;;;15.15;56.86;100842.94;4985960;28;45513;-77
2021/10/21 06:42:22;;;;;;;;;1.50;1.00;;;;;15.18;56.72;100851.59;4982772;28;45290;-77
2021/10/21 06:44:48;;;;;;;;;2.00;0.00;;;;;15.18;56.93;100848.09;4990129;28;45846;-77
2021/10/21 06:47:14;;;;;;;;;3.00;1.00;;;;;15.19;56.78;100853.31;4994422;28;46261;-77
2021/10/21 06:49:39;;;;;;;;;1.00;0.00;;;;;15.21;57.04;100853.22;4979786;28;45404;-77
2021/10/21 06:52:05;;;;;;;;;2.00;0.75;;;;;15.27;56.54;100858.22;4979999;28;45353;-77
2021/10/21 06:54:30;;;;;;;;;3.00;1.50;;;;;15.27;56.32;100862.63;4989911;28;45553;-76
2021/10/21 06:56:55;;;;;;;;;1.00;1.00;;;;;15.27;56.11;100868.81;4998732;28;46086;-76
2021/10/21 06:59:21;;;;;;;;;2.75;1.00;;;;;15.24;56.78;100870.72;4994890;28;45382;-76
2021/10/21 07:01:46;;;;;;;;;2.00;0.75;;;;;15.22;57.06;100878.75;4994851;28;45323;-77
2021/10/21 07:04:12;;;;;;;;;3.50;2.25;;;;;15.26;57.27;100877.66;5000492;28;45213;-77
2021/10/21 07:06:37;;;;;;;;;1.00;1.00;;;;;15.29;57.00;100877.50;4994512;28;45279;-76
2021/10/21 07:09:03;;;;;;;;;1.00;1.00;;;;;15.36;57.27;100879.88;4990788;28;45298;-76
2021/10/21 07:11:30;;;;;;;;;1.00;0.00;;;;;15.40;57.58;100892.00;4987063;28;45656;-76
2021/10/21 07:13:55;;;;;;;;;1.25;1.00;;;;;15.43;57.58;100880.41;5002465;28;45233;-76
2021/10/21 07:16:21;;;;;;;;;0.75;0.75;;;;;15.48;57.36;100918.94;4990917;28;46251;-76
2021/10/21 07:18:47;;;;;;;;;2.25;0.75;;;;;15.51;57.24;100905.53;4983231;28;45387;-76
2021/10/21 07:21:17;;;;;;;;;4.50;1.00;;;;;15.39;57.29;100914.13;4997266;28;45477;-76
2021/10/21 07:23:42;;;;;;;;;2.75;2.00;;;;;15.36;57.62;100917.78;4987044;28;45227;-77
2021/10/21 07:26:09;;;;;;;;;1.25;1.00;;;;;15.38;57.38;100920.38;4992603;28;45715;-77
2021/10/21 07:28:34;;;;;;;;;1.00;1.00;;;;;15.37;57.54;100916.00;5002685;28;45334;-76
2021/10/21 07:31:00;;;;;;;;;1.50;1.00;;;;;15.35;57.84;100920.50;5000105;28;45442;-76
2021/10/21 07:33:26;;;;;;;;;2.75;1.00;;;;;15.44;56.60;100930.63;5000909;28;45991;-76
2021/10/21 07:35:52;;;;;;;;;1.00;1.00;;;;;15.42;57.92;100924.56;4994241;28;46385;-76
2021/10/21 07:38:18;;;;;;;;;2.00;2.00;;;;;15.48;57.49;100926.88;5001617;28;45302;-76
2021/10/21 07:40:43;;;;;;;;;0.00;0.00;;;;;15.55;57.72;100939.84;5000810;28;45480;-76
2021/10/21 07:43:10;;;;;;;;;1.00;1.00;;;;;15.66;57.05;100948.09;4993047;28;45498;-76
2021/10/21 07:45:36;;;;;;;;;2.00;0.25;;;;;15.70;57.29;100946.16;4992132;28;45633;-76
2021/10/21 07:48:01;;;;;;;;;3.00;1.00;;;;;15.73;56.44;100954.78;4998381;28;45443;-76
2021/10/21 07:50:26;;;;;;;;;1.50;1.00;;;;;15.71;57.30;100955.78;5001382;28;45247;-76
2021/10/21 07:52:52;;;;;;;;;5.25;2.25;;;;;15.70;55.78;100964.69;4989082;28;46307;-76
2021/10/21 07:55:20;;;;;;;;;0.25;0.00;;;;;15.64;56.65;100968.50;4994071;28;45440;-77
2021/10/21 07:57:45;;;;;;;;;2.75;2.75;;;;;15.63;56.38;100970.28;5001127;28;45473;-76
2021/10/21 08:00:12;;;;;;;;;2.00;2.00;;;;;15.62;57.25;100978.31;4986764;28;45277;-76
2021/10/21 08:02:41;;;;;;;;;0.00;0.00;;;;;15.62;57.81;100983.63;4991430;28;45435;-76
2021/10/21 08:05:06;;;;;;;;;4.50;1.50;;;;;15.72;57.29;100989.31;4991570;28;46145;-76
2021/10/21 08:07:37;;;;;;;;;2.00;2.00;;;;;15.82;56.65;100979.97;4982512;28;45260;-76
2021/10/21 08:10:03;;;;;;;;;1.00;1.00;;;;;15.83;56.86;100979.00;4982494;28;45406;-76
2021/10/21 08:12:28;;;;;;;;;2.00;2.00;;;;;15.89;56.85;100979.63;4990430;28;45311;-76
2021/10/21 08:14:54;;;;;;;;;1.25;1.00;;;;;15.93;55.83;100976.75;4998788;28;46088;-76
2021/10/21 08:17:19;;;;;;;;;2.75;1.00;;;;;15.87;56.28;100982.38;5005910;28;45439;-76
2021/10/21 08:19:44;;;;;;;;;2.00;1.75;;;;;15.81;56.11;100987.97;4984846;28;45548;-76
2021/10/21 08:22:10;;;;;;;;;1.00;1.00;;;;;15.74;56.34;100996.25;4985073;28;45464;-76
2021/10/21 08:24:35;;;;;;;;;2.00;1.25;;;;;15.71;57.05;100988.44;4996281;28;46437;-76
2021/10/21 08:27:00;;;;;;;;;3.00;1.00;;;;;15.73;57.25;100989.22;4991389;28;45391;-76
2021/10/21 08:29:26;;;;;;;;;2.75;2.00;;;;;15.71;57.25;100992.88;5001396;28;45415;-76
2021/10/21 08:31:56;;;;;;;;;3.00;2.00;;;;;15.75;56.75;100990.00;4991695;28;45162;-76
2021/10/21 08:34:21;;;;;;;;;1.50;1.50;;;;;15.83;56.76;100994.03;4993864;28;45552;-76
2021/10/21 08:36:47;;;;;;;;;2.75;1.00;;;;;15.85;56.53;101000.16;4994838;28;45343;-77
2021/10/21 08:39:12;;;;;;;;;1.75;0.50;;;;;15.79;55.82;101001.31;5001847;28;45360;-77
2021/10/21 08:41:38;;;;;;;;;2.50;1.00;;;;;15.76;55.63;101004.13;5000986;28;45417;-76
2021/10/21 08:44:04;;;;;;;;;5.50;2.00;;;;;15.72;56.06;101005.22;5000208;28;45415;-76
2021/10/21 08:46:30;;;;;;;;;3.50;2.00;;;;;15.71;56.04;100998.19;4990603;28;45309;-76
2021/10/21 08:49:00;;;;;;;;;2.00;2.00;;;;;15.73;56.09;100999.81;4981692;28;45413;-77
2021/10/21 08:51:27;;;;;;;;;3.75;3.00;;;;;15.65;56.31;100991.44;4981804;28;45192;-76
2021/10/21 08:53:53;;;;;;;;;3.50;1.00;;;;;15.71;56.46;100998.19;4992485;28;45352;-76
2021/10/21 08:56:25;;;;;;;;;2.00;0.00;;;;;15.76;55.80;101006.75;4998314;28;45331;-76
2021/10/21 08:58:53;;;;;;;;;8.50;4.00;;;;;15.69;55.09;101006.22;4995517;28;45229;-76
2021/10/21 09:01:21;;;;;;;;;2.00;2.00;;;;;15.62;56.29;101010.13;4986804;28;45923;-76
2021/10/21 09:04:27;;;;;;;;;4.75;2.00;;;;;15.63;57.36;101003.91;4995420;28;45368;-76
2021/10/21 09:09:21;;;;;;;;;3.25;2.00;;;;;15.81;56.63;101012.69;4998357;28;45474;-76
2021/10/21 09:12:02;;;;;;;;;0.50;0.25;;;;;15.86;55.36;101010.66;4993565;28;45737;-76
2021/10/21 09:14:33;;;;;;;;;2.25;2.25;;;;;15.90;56.78;101010.50;4986333;28;46426;-76
2021/10/21 09:17:00;;;;;;;;;0.50;0.00;;;;;15.96;56.34;101008.41;4980769;28;45597;-76
2021/10/21 09:19:29;;;;;;;;;1.25;1.25;;;;;16.03;55.90;100997.47;4986586;28;45548;-76
2021/10/21 09:21:55;;;;;;;;;1.25;1.25;;;;;16.00;55.59;101003.78;4993392;28;45535;-76
2021/10/21 09:24:44;;;;;;;;;2.75;1.00;;;;;16.06;55.38;101007.94;4994439;28;45517;-76
2021/10/21 09:27:12;;;;;;;;;2.00;1.75;;;;;15.96;54.77;101005.75;4984879;28;45357;-76
2021/10/21 09:29:52;;;;;;;;;2.25;0.25;;;;;15.93;55.31;101005.91;4980823;28;45254;-76
2021/10/21 09:32:31;;;;;;;;;1.75;1.75;;;;;15.94;55.52;100997.03;4984500;28;45479;-76
2021/10/21 09:35:02;;;;;;;;;2.75;2.75;;;;;16.05;56.06;101011.56;4999102;28;45416;-77
2021/10/21 09:37:34;;;;;;;;;1.00;1.00;;;;;16.03;53.43;101024.84;4992656;28;45486;-76
2021/10/21 09:40:12;;;;;;;;;1.50;1.00;;;;;16.03;53.83;101019.53;4986755;28;45361;-77
2021/10/21 09:42:40;;;;;;;;;0.50;0.50;;;;;16.01;54.53;101009.94;4992155;28;45447;-77
2021/10/21 09:45:14;;;;;;;;;2.00;0.25;;;;;16.06;54.50;101016.75;4999112;28;45482;-77
2021/10/21 09:47:43;;;;;;;;;3.75;0.75;;;;;16.02;55.96;101011.66;5000300;28;45391;-77
2021/10/21 09:50:17;;;;;;;;;2.75;2.00;;;;;16.07;55.68;101017.63;4999054;28;45224;-77
2021/10/21 09:53:20;;;;;;;;;4.00;1.25;;;;;16.13;55.04;101014.66;4997706;28;45707;-76
2021/10/21 09:55:47;;;;;;;;;1.50;1.00;;;;;16.16;55.18;101006.53;4983667;28;45332;-77
2021/10/21 09:58:13;;;;;;;;;3.00;0.00;;;;;16.18;55.01;101002.00;4996084;28;45372;-77
2021/10/21 10:00:44;;;;;;;;;3.00;2.00;;;;;16.18;55.14;100994.03;4993019;28;46684;-77
2021/10/21 10:03:19;;;;;;;;;6.00;1.50;;;;;16.27;54.75;101005.94;4988010;28;46441;-77
2021/10/21 10:05:52;;;;;;;;;2.00;1.00;;;;;16.26;54.77;101009.56;4997889;28;48157;-77
2021/10/21 10:08:25;;;;;;;;;3.00;0.00;;;;;16.27;53.56;101013.91;4987607;28;45438;-77
2021/10/21 10:10:53;;;;;;;;;3.75;1.50;;;;;16.26;54.51;101012.22;4986965;28;45217;-77
2021/10/21 10:13:19;;;;;;;;;4.00;1.00;;;;;16.31;55.46;101018.13;4986067;28;46785;-77
2021/10/21 10:15:47;;;;;;;;;1.00;1.00;;;;;16.39;54.01;101012.44;4996466;28;45640;-77
2021/10/21 10:18:22;;;;;;;;;2.75;1.00;;;;;16.43;53.40;101018.41;4999588;28;45284;-76
2021/10/21 10:21:09;;;;;;;;;4.75;2.50;;;;;16.54;54.08;101005.41;4983405;28;45294;-76
2021/10/21 10:23:39;;;;;;;;;2.25;1.00;;;;;16.60;54.60;101011.31;4985204;28;45531;-76
2021/10/21 10:26:04;;;;;;;;;0.25;0.25;;;;;16.62;52.25;101022.72;4984344;28;46209;-76
2021/10/21 10:28:53;;;;;;;;;1.25;0.00;;;;;16.64;53.49;101021.69;4978887;28;45400;-76
2021/10/21 10:31:39;;;;;;;;;1.50;1.00;;;;;16.67;54.26;101007.41;4980312;28;45497;-77
2021/10/21 10:34:06;;;;;;;;;0.75;0.75;;;;;16.80;54.01;101007.59;4987729;28;45567;-77
2021/10/21 10:36:32;;;;;;;;;1.75;1.00;;;;;16.92;54.10;101021.09;4998930;28;45546;-77
2021/10/21 10:39:00;;;;;;;;;1.75;1.00;;;;;16.96;54.34;101001.44;4999664;28;45376;-77
2021/10/21 10:41:41;;;;;;;;;1.50;0.25;;;;;17.10;53.09;101012.13;4997402;28;45414;-77
2021/10/21 10:44:07;;;;;;;;;2.00;1.00;;;;;17.10;51.42;100990.88;4989718;28;45158;-77
2021/10/21 10:46:51;;;;;;;;;4.25;2.00;;;;;17.10;52.66;101003.31;4995344;28;46278;-77
2021/10/21 10:49:41;;;;;;;;;4.50;0.00;;;;;17.07;52.92;100999.03;4982007;28;45524;-77
2021/10/21 10:52:11;;;;;;;;;0.00;0.00;;;;;17.04;53.60;101022.25;4979861;28;45300;-77
2021/10/21 10:54:39;;;;;;;;;2.25;1.25;;;;;17.03;54.29;101016.06;4979976;28;45598;-77
2021/10/21 10:57:07;;;;;;;;;3.00;2.00;;;;;17.09;54.46;101018.38;4979760;28;45555;-77
2021/10/21 10:59:33;;;;;;;;;1.25;1.25;;;;;17.20;54.40;101019.59;4979738;28;45669;-78
2021/10/21 11:02:20;;;;;;;;;2.00;1.75;;;;;17.23;54.36;101019.44;4979606;28;45476;-77
2021/10/21 11:04:54;;;;;;;;;1.50;1.25;;;;;17.22;54.42;101012.41;4989025;28;45477;-77
2021/10/21 11:07:22;;;;;;;;;1.50;1.50;;;;;17.14;54.72;101020.78;4982254;28;46489;-77
2021/10/21 11:09:49;;;;;;;;;2.75;0.50;;;;;17.24;54.70;101014.97;4979360;28;45580;-77
2021/10/21 11:12:19;;;;;;;;;1.25;0.50;;;;;17.33;55.00;100998.53;4980247;28;45444;-77
2021/10/21 11:14:46;;;;;;;;;2.25;2.00;;;;;17.47;55.29;101013.66;4984333;28;45504;-77
2021/10/21 11:17:13;;;;;;;;;2.75;1.00;;;;;17.57;54.84;101000.69;4991815;28;46439;-77
2021/10/21 11:22:07;;;;;;;;;2.75;2.00;;;;;17.70;55.15;100999.97;4979578;28;45514;-77
2021/10/21 11:24:48;;;;;;;;;1.25;0.50;;;;;17.74;54.79;101006.78;4990055;28;45364;-77
2021/10/21 11:27:33;;;;;;;;;2.75;2.00;;;;;17.73;54.89;101007.75;4981669;28;45426;-77
2021/10/21 11:30:09;;;;;;;;;0.00;0.00;;;;;17.64;55.05;100990.53;4989441;28;45315;-77
2021/10/21 11:32:36;;;;;;;;;1.75;1.75;;;;;17.53;56.77;100994.69;4998340;28;45498;-77